sensor_id;sensor_type;location;lat;lon;timestamp;P1;durP1;ratioP1;P2;durP2;ratioP2
83119;SDS011;73001;51.784;4.660;2023-12-20T00:01:04;4.49;;;3.14;;
83119;SDS011;73001;51.784;4.660;2023-12-20T00:03:30;4.31;;;3.03;;
83119;SDS011;73001;51.784;4.660;2023-12-20T00:05:55;5.05;;;3.52;;
83119;SDS011;73001;51.784;4.660;2023-12-20T00:08:26;5.23;;;3.61;;
83119;SDS011;73001;51.784;4.660;2023-12-20T00:10:52;5.33;;;3.67;;
83119;SDS011;73001;51.784;4.660;2023-12-20T00:13:17;5.24;;;3.60;;
83119;SDS011;73001;51.784;4.660;2023-12-20T00:15:43;5.69;;;3.83;;
83119;SDS011;73001;51.784;4.660;2023-12-20T00:18:08;5.99;;;4.02;;
83119;SDS011;73001;51.784;4.660;2023-12-20T00:20:34;6.35;;;4.22;;
83119;SDS011;73001;51.784;4.660;2023-12-20T00:22:59;6.69;;;4.47;;
83119;SDS011;73001;51.784;4.660;2023-12-20T00:25:26;6.24;;;4.20;;
83119;SDS011;73001;51.784;4.660;2023-12-20T00:27:52;6.05;;;4.05;;
83119;SDS011;73001;51.784;4.660;2023-12-20T00:30:18;5.94;;;4.00;;
83119;SDS011;73001;51.784;4.660;2023-12-20T00:32:46;5.76;;;3.95;;
83119;SDS011;73001;51.784;4.660;2023-12-20T00:35:13;5.83;;;4.07;;
83119;SDS011;73001;51.784;4.660;2023-12-20T00:37:39;5.52;;;3.88;;
83119;SDS011;73001;51.784;4.660;2023-12-20T00:40:05;5.58;;;3.97;;
83119;SDS011;73001;51.784;4.660;2023-12-20T00:42:31;5.61;;;3.98;;
83119;SDS011;73001;51.784;4.660;2023-12-20T00:44:58;5.25;;;3.77;;
83119;SDS011;73001;51.784;4.660;2023-12-20T00:47:24;5.89;;;4.18;;
83119;SDS011;73001;51.784;4.660;2023-12-20T00:49:53;5.58;;;3.87;;
83119;SDS011;73001;51.784;4.660;2023-12-20T00:52:22;6.99;;;4.81;;
83119;SDS011;73001;51.784;4.660;2023-12-20T00:54:48;6.40;;;4.44;;
83119;SDS011;73001;51.784;4.660;2023-12-20T00:57:14;6.44;;;4.56;;
83119;SDS011;73001;51.784;4.660;2023-12-20T00:59:40;5.67;;;4.04;;
83119;SDS011;73001;51.784;4.660;2023-12-20T01:02:06;6.74;;;4.82;;
83119;SDS011;73001;51.784;4.660;2023-12-20T01:04:32;5.63;;;4.04;;
83119;SDS011;73001;51.784;4.660;2023-12-20T01:06:59;5.18;;;3.73;;
83119;SDS011;73001;51.784;4.660;2023-12-20T01:09:25;5.89;;;4.27;;
83119;SDS011;73001;51.784;4.660;2023-12-20T01:11:54;6.13;;;4.43;;
83119;SDS011;73001;51.784;4.660;2023-12-20T01:14:22;6.19;;;4.48;;
83119;SDS011;73001;51.784;4.660;2023-12-20T01:16:48;6.66;;;4.81;;
83119;SDS011;73001;51.784;4.660;2023-12-20T01:19:14;6.17;;;4.50;;
83119;SDS011;73001;51.784;4.660;2023-12-20T01:21:42;6.89;;;4.83;;
83119;SDS011;73001;51.784;4.660;2023-12-20T01:24:08;7.51;;;5.28;;
83119;SDS011;73001;51.784;4.660;2023-12-20T01:26:37;6.49;;;4.65;;
83119;SDS011;73001;51.784;4.660;2023-12-20T01:29:03;6.66;;;4.84;;
83119;SDS011;73001;51.784;4.660;2023-12-20T01:31:29;6.41;;;4.72;;
83119;SDS011;73001;51.784;4.660;2023-12-20T01:33:55;7.36;;;5.25;;
83119;SDS011;73001;51.784;4.660;2023-12-20T01:36:24;7.57;;;5.34;;
83119;SDS011;73001;51.784;4.660;2023-12-20T01:38:51;7.25;;;5.15;;
83119;SDS011;73001;51.784;4.660;2023-12-20T01:41:19;6.80;;;4.89;;
83119;SDS011;73001;51.784;4.660;2023-12-20T01:43:45;7.10;;;5.03;;
83119;SDS011;73001;51.784;4.660;2023-12-20T01:46:11;8.01;;;5.73;;
83119;SDS011;73001;51.784;4.660;2023-12-20T01:48:39;7.74;;;5.50;;
83119;SDS011;73001;51.784;4.660;2023-12-20T01:51:08;7.56;;;5.37;;
83119;SDS011;73001;51.784;4.660;2023-12-20T01:53:35;7.70;;;5.33;;
83119;SDS011;73001;51.784;4.660;2023-12-20T01:56:02;9.06;;;6.09;;
83119;SDS011;73001;51.784;4.660;2023-12-20T01:58:33;7.68;;;5.12;;
83119;SDS011;73001;51.784;4.660;2023-12-20T02:01:00;7.45;;;5.13;;
83119;SDS011;73001;51.784;4.660;2023-12-20T02:03:26;7.22;;;5.02;;
83119;SDS011;73001;51.784;4.660;2023-12-20T02:05:56;7.46;;;5.18;;
83119;SDS011;73001;51.784;4.660;2023-12-20T02:08:22;7.57;;;5.18;;
83119;SDS011;73001;51.784;4.660;2023-12-20T02:10:48;8.60;;;5.76;;
83119;SDS011;73001;51.784;4.660;2023-12-20T02:13:14;8.64;;;5.79;;
83119;SDS011;73001;51.784;4.660;2023-12-20T02:15:40;7.90;;;5.26;;
83119;SDS011;73001;51.784;4.660;2023-12-20T02:18:09;8.53;;;5.77;;
83119;SDS011;73001;51.784;4.660;2023-12-20T02:20:35;8.13;;;5.48;;
83119;SDS011;73001;51.784;4.660;2023-12-20T02:23:01;8.04;;;5.41;;
83119;SDS011;73001;51.784;4.660;2023-12-20T02:25:29;9.19;;;6.14;;
83119;SDS011;73001;51.784;4.660;2023-12-20T02:27:55;9.77;;;6.51;;
83119;SDS011;73001;51.784;4.660;2023-12-20T02:30:28;9.48;;;6.27;;
83119;SDS011;73001;51.784;4.660;2023-12-20T02:32:56;9.75;;;6.43;;
83119;SDS011;73001;51.784;4.660;2023-12-20T02:35:25;9.32;;;6.18;;
83119;SDS011;73001;51.784;4.660;2023-12-20T02:37:50;9.27;;;6.10;;
83119;SDS011;73001;51.784;4.660;2023-12-20T02:40:17;8.74;;;5.79;;
83119;SDS011;73001;51.784;4.660;2023-12-20T02:42:43;8.76;;;5.90;;
83119;SDS011;73001;51.784;4.660;2023-12-20T02:45:11;8.34;;;5.59;;
83119;SDS011;73001;51.784;4.660;2023-12-20T02:47:39;8.34;;;5.70;;
83119;SDS011;73001;51.784;4.660;2023-12-20T02:50:05;7.73;;;5.26;;
83119;SDS011;73001;51.784;4.660;2023-12-20T02:52:33;8.01;;;5.40;;
83119;SDS011;73001;51.784;4.660;2023-12-20T02:54:59;9.40;;;6.25;;
83119;SDS011;73001;51.784;4.660;2023-12-20T02:57:24;8.71;;;5.73;;
83119;SDS011;73001;51.784;4.660;2023-12-20T02:59:56;9.54;;;6.23;;
83119;SDS011;73001;51.784;4.660;2023-12-20T03:02:22;9.24;;;6.06;;
83119;SDS011;73001;51.784;4.660;2023-12-20T03:04:47;9.09;;;5.91;;
83119;SDS011;73001;51.784;4.660;2023-12-20T03:07:13;9.24;;;6.02;;
83119;SDS011;73001;51.784;4.660;2023-12-20T03:09:39;9.35;;;6.05;;
83119;SDS011;73001;51.784;4.660;2023-12-20T03:12:05;9.56;;;6.24;;
83119;SDS011;73001;51.784;4.660;2023-12-20T03:14:30;9.65;;;6.40;;
83119;SDS011;73001;51.784;4.660;2023-12-20T03:17:04;8.64;;;5.81;;
83119;SDS011;73001;51.784;4.660;2023-12-20T03:19:31;7.93;;;5.36;;
83119;SDS011;73001;51.784;4.660;2023-12-20T03:21:57;9.29;;;6.17;;
83119;SDS011;73001;51.784;4.660;2023-12-20T03:24:26;9.14;;;6.03;;
83119;SDS011;73001;51.784;4.660;2023-12-20T03:26:52;10.06;;;6.58;;
83119;SDS011;73001;51.784;4.660;2023-12-20T03:29:19;9.62;;;6.32;;
83119;SDS011;73001;51.784;4.660;2023-12-20T03:31:45;8.87;;;5.90;;
83119;SDS011;73001;51.784;4.660;2023-12-20T03:34:12;9.77;;;6.48;;
83119;SDS011;73001;51.784;4.660;2023-12-20T03:36:45;9.68;;;6.40;;
83119;SDS011;73001;51.784;4.660;2023-12-20T03:39:12;9.33;;;6.16;;
83119;SDS011;73001;51.784;4.660;2023-12-20T03:41:39;8.75;;;5.87;;
83119;SDS011;73001;51.784;4.660;2023-12-20T03:44:05;8.51;;;5.73;;
83119;SDS011;73001;51.784;4.660;2023-12-20T03:46:30;9.44;;;6.30;;
83119;SDS011;73001;51.784;4.660;2023-12-20T03:48:56;9.85;;;6.52;;
83119;SDS011;73001;51.784;4.660;2023-12-20T03:51:25;9.19;;;6.07;;
83119;SDS011;73001;51.784;4.660;2023-12-20T03:53:51;9.80;;;6.44;;
83119;SDS011;73001;51.784;4.660;2023-12-20T03:56:17;9.24;;;6.08;;
83119;SDS011;73001;51.784;4.660;2023-12-20T03:58:48;9.83;;;6.43;;
83119;SDS011;73001;51.784;4.660;2023-12-20T04:01:14;9.96;;;6.51;;
83119;SDS011;73001;51.784;4.660;2023-12-20T04:03:40;9.54;;;6.32;;
83119;SDS011;73001;51.784;4.660;2023-12-20T04:06:05;9.22;;;6.08;;
83119;SDS011;73001;51.784;4.660;2023-12-20T04:08:34;9.45;;;6.22;;
83119;SDS011;73001;51.784;4.660;2023-12-20T04:11:05;10.23;;;6.73;;
83119;SDS011;73001;51.784;4.660;2023-12-20T04:13:31;10.36;;;6.75;;
83119;SDS011;73001;51.784;4.660;2023-12-20T04:15:57;9.37;;;6.11;;
83119;SDS011;73001;51.784;4.660;2023-12-20T04:18:23;9.41;;;6.14;;
83119;SDS011;73001;51.784;4.660;2023-12-20T04:20:49;8.97;;;5.90;;
83119;SDS011;73001;51.784;4.660;2023-12-20T04:23:16;9.49;;;6.27;;
83119;SDS011;73001;51.784;4.660;2023-12-20T04:25:45;8.90;;;5.94;;
83119;SDS011;73001;51.784;4.660;2023-12-20T04:28:13;9.11;;;6.00;;
83119;SDS011;73001;51.784;4.660;2023-12-20T04:30:41;8.92;;;5.91;;
83119;SDS011;73001;51.784;4.660;2023-12-20T04:33:08;9.36;;;6.29;;
83119;SDS011;73001;51.784;4.660;2023-12-20T04:35:35;8.68;;;5.82;;
83119;SDS011;73001;51.784;4.660;2023-12-20T04:38:01;8.31;;;5.65;;
83119;SDS011;73001;51.784;4.660;2023-12-20T04:40:26;8.76;;;5.91;;
83119;SDS011;73001;51.784;4.660;2023-12-20T04:42:52;8.73;;;5.93;;
83119;SDS011;73001;51.784;4.660;2023-12-20T04:45:18;9.12;;;6.14;;
83119;SDS011;73001;51.784;4.660;2023-12-20T04:47:48;8.24;;;5.59;;
83119;SDS011;73001;51.784;4.660;2023-12-20T04:50:17;8.62;;;5.86;;
83119;SDS011;73001;51.784;4.660;2023-12-20T04:52:43;7.90;;;5.34;;
83119;SDS011;73001;51.784;4.660;2023-12-20T04:55:08;8.12;;;5.59;;
83119;SDS011;73001;51.784;4.660;2023-12-20T04:57:36;8.12;;;5.61;;
83119;SDS011;73001;51.784;4.660;2023-12-20T05:00:08;8.75;;;5.97;;
83119;SDS011;73001;51.784;4.660;2023-12-20T05:02:35;9.58;;;6.52;;
83119;SDS011;73001;51.784;4.660;2023-12-20T05:05:01;9.89;;;6.72;;
83119;SDS011;73001;51.784;4.660;2023-12-20T05:07:28;9.51;;;6.55;;
83119;SDS011;73001;51.784;4.660;2023-12-20T05:09:54;9.05;;;6.22;;
83119;SDS011;73001;51.784;4.660;2023-12-20T05:12:21;8.82;;;6.06;;
83119;SDS011;73001;51.784;4.660;2023-12-20T05:14:47;9.85;;;6.66;;
83119;SDS011;73001;51.784;4.660;2023-12-20T05:17:13;9.57;;;6.47;;
83119;SDS011;73001;51.784;4.660;2023-12-20T05:19:39;8.66;;;5.94;;
83119;SDS011;73001;51.784;4.660;2023-12-20T05:22:04;8.12;;;5.70;;
83119;SDS011;73001;51.784;4.660;2023-12-20T05:24:30;8.88;;;6.11;;
83119;SDS011;73001;51.784;4.660;2023-12-20T05:26:55;9.66;;;6.49;;
83119;SDS011;73001;51.784;4.660;2023-12-20T05:29:21;8.82;;;5.96;;
83119;SDS011;73001;51.784;4.660;2023-12-20T05:31:46;9.47;;;6.33;;
83119;SDS011;73001;51.784;4.660;2023-12-20T05:34:12;9.91;;;6.60;;
83119;SDS011;73001;51.784;4.660;2023-12-20T05:36:42;8.61;;;5.85;;
83119;SDS011;73001;51.784;4.660;2023-12-20T05:39:07;8.91;;;6.00;;
83119;SDS011;73001;51.784;4.660;2023-12-20T05:41:33;9.45;;;6.20;;
83119;SDS011;73001;51.784;4.660;2023-12-20T05:43:58;9.54;;;6.19;;
83119;SDS011;73001;51.784;4.660;2023-12-20T05:46:25;8.89;;;5.89;;
83119;SDS011;73001;51.784;4.660;2023-12-20T05:48:53;9.01;;;6.01;;
83119;SDS011;73001;51.784;4.660;2023-12-20T05:51:19;9.20;;;6.17;;
83119;SDS011;73001;51.784;4.660;2023-12-20T05:53:47;8.61;;;5.86;;
83119;SDS011;73001;51.784;4.660;2023-12-20T05:56:21;9.49;;;6.49;;
83119;SDS011;73001;51.784;4.660;2023-12-20T05:58:47;9.61;;;6.58;;
83119;SDS011;73001;51.784;4.660;2023-12-20T06:01:14;9.83;;;6.76;;
83119;SDS011;73001;51.784;4.660;2023-12-20T06:03:44;10.10;;;6.97;;
83119;SDS011;73001;51.784;4.660;2023-12-20T06:06:15;8.97;;;6.15;;
83119;SDS011;73001;51.784;4.660;2023-12-20T06:08:40;9.19;;;6.41;;
83119;SDS011;73001;51.784;4.660;2023-12-20T06:11:13;10.26;;;7.00;;
83119;SDS011;73001;51.784;4.660;2023-12-20T06:13:38;10.30;;;6.89;;
83119;SDS011;73001;51.784;4.660;2023-12-20T06:16:10;11.04;;;7.28;;
83119;SDS011;73001;51.784;4.660;2023-12-20T06:18:36;10.30;;;6.88;;
83119;SDS011;73001;51.784;4.660;2023-12-20T06:21:02;10.51;;;7.14;;
83119;SDS011;73001;51.784;4.660;2023-12-20T06:23:29;9.70;;;6.45;;
83119;SDS011;73001;51.784;4.660;2023-12-20T06:25:55;9.64;;;6.39;;
83119;SDS011;73001;51.784;4.660;2023-12-20T06:28:21;10.15;;;6.92;;
83119;SDS011;73001;51.784;4.660;2023-12-20T06:30:46;10.83;;;7.18;;
83119;SDS011;73001;51.784;4.660;2023-12-20T06:33:14;10.28;;;6.84;;
83119;SDS011;73001;51.784;4.660;2023-12-20T06:35:39;10.01;;;6.67;;
83119;SDS011;73001;51.784;4.660;2023-12-20T06:38:05;9.43;;;6.34;;
83119;SDS011;73001;51.784;4.660;2023-12-20T06:40:35;9.23;;;6.20;;
83119;SDS011;73001;51.784;4.660;2023-12-20T06:43:03;9.67;;;6.42;;
83119;SDS011;73001;51.784;4.660;2023-12-20T06:45:32;9.86;;;6.65;;
83119;SDS011;73001;51.784;4.660;2023-12-20T06:47:58;9.88;;;6.58;;
83119;SDS011;73001;51.784;4.660;2023-12-20T06:50:26;11.18;;;7.35;;
83119;SDS011;73001;51.784;4.660;2023-12-20T06:52:55;10.57;;;6.99;;
83119;SDS011;73001;51.784;4.660;2023-12-20T06:55:24;10.51;;;6.92;;
83119;SDS011;73001;51.784;4.660;2023-12-20T06:57:50;10.65;;;6.90;;
83119;SDS011;73001;51.784;4.660;2023-12-20T07:00:17;10.43;;;6.98;;
83119;SDS011;73001;51.784;4.660;2023-12-20T07:02:50;10.34;;;6.98;;
83119;SDS011;73001;51.784;4.660;2023-12-20T07:05:17;10.56;;;7.03;;
83119;SDS011;73001;51.784;4.660;2023-12-20T07:07:51;9.82;;;6.57;;
83119;SDS011;73001;51.784;4.660;2023-12-20T07:10:17;9.43;;;6.32;;
83119;SDS011;73001;51.784;4.660;2023-12-20T07:12:43;10.75;;;7.13;;
83119;SDS011;73001;51.784;4.660;2023-12-20T07:15:09;9.93;;;6.77;;
83119;SDS011;73001;51.784;4.660;2023-12-20T07:17:37;8.23;;;5.73;;
83119;SDS011;73001;51.784;4.660;2023-12-20T07:20:03;9.02;;;6.25;;
83119;SDS011;73001;51.784;4.660;2023-12-20T07:22:30;7.99;;;5.55;;
83119;SDS011;73001;51.784;4.660;2023-12-20T07:24:58;9.59;;;6.50;;
83119;SDS011;73001;51.784;4.660;2023-12-20T07:27:24;9.18;;;6.24;;
83119;SDS011;73001;51.784;4.660;2023-12-20T07:29:50;11.16;;;7.67;;
83119;SDS011;73001;51.784;4.660;2023-12-20T07:32:19;11.31;;;7.88;;
83119;SDS011;73001;51.784;4.660;2023-12-20T07:34:46;8.54;;;6.06;;
83119;SDS011;73001;51.784;4.660;2023-12-20T07:37:12;8.03;;;5.65;;
83119;SDS011;73001;51.784;4.660;2023-12-20T07:39:41;9.11;;;6.14;;
83119;SDS011;73001;51.784;4.660;2023-12-20T07:42:08;10.43;;;6.73;;
83119;SDS011;73001;51.784;4.660;2023-12-20T07:44:34;11.17;;;7.10;;
83119;SDS011;73001;51.784;4.660;2023-12-20T07:47:03;11.27;;;7.23;;
83119;SDS011;73001;51.784;4.660;2023-12-20T07:49:30;9.91;;;6.46;;
83119;SDS011;73001;51.784;4.660;2023-12-20T07:51:57;10.48;;;6.90;;
83119;SDS011;73001;51.784;4.660;2023-12-20T07:54:23;10.19;;;6.81;;
83119;SDS011;73001;51.784;4.660;2023-12-20T07:56:49;9.43;;;6.48;;
83119;SDS011;73001;51.784;4.660;2023-12-20T07:59:14;9.30;;;6.50;;
83119;SDS011;73001;51.784;4.660;2023-12-20T08:01:40;9.47;;;6.77;;
83119;SDS011;73001;51.784;4.660;2023-12-20T08:04:08;9.42;;;6.52;;
83119;SDS011;73001;51.784;4.660;2023-12-20T08:06:33;10.52;;;7.14;;
83119;SDS011;73001;51.784;4.660;2023-12-20T08:08:59;9.92;;;6.66;;
83119;SDS011;73001;51.784;4.660;2023-12-20T08:11:25;10.59;;;7.00;;
83119;SDS011;73001;51.784;4.660;2023-12-20T08:13:50;11.15;;;7.29;;
83119;SDS011;73001;51.784;4.660;2023-12-20T08:16:16;10.43;;;6.87;;
83119;SDS011;73001;51.784;4.660;2023-12-20T08:18:42;10.71;;;7.03;;
83119;SDS011;73001;51.784;4.660;2023-12-20T08:21:08;9.33;;;6.17;;
83119;SDS011;73001;51.784;4.660;2023-12-20T08:23:34;10.90;;;7.23;;
83119;SDS011;73001;51.784;4.660;2023-12-20T08:26:06;10.41;;;6.88;;
83119;SDS011;73001;51.784;4.660;2023-12-20T08:28:35;10.58;;;7.08;;
83119;SDS011;73001;51.784;4.660;2023-12-20T08:31:02;9.61;;;6.41;;
83119;SDS011;73001;51.784;4.660;2023-12-20T08:33:30;10.52;;;6.93;;
83119;SDS011;73001;51.784;4.660;2023-12-20T08:35:58;10.94;;;7.16;;
83119;SDS011;73001;51.784;4.660;2023-12-20T08:38:30;10.29;;;6.72;;
83119;SDS011;73001;51.784;4.660;2023-12-20T08:40:56;9.88;;;6.57;;
83119;SDS011;73001;51.784;4.660;2023-12-20T08:43:21;10.08;;;6.80;;
83119;SDS011;73001;51.784;4.660;2023-12-20T08:45:47;9.65;;;6.54;;
83119;SDS011;73001;51.784;4.660;2023-12-20T08:48:13;10.26;;;6.89;;
83119;SDS011;73001;51.784;4.660;2023-12-20T08:50:46;10.83;;;7.14;;
83119;SDS011;73001;51.784;4.660;2023-12-20T08:53:24;10.23;;;6.65;;
83119;SDS011;73001;51.784;4.660;2023-12-20T08:55:50;11.10;;;7.56;;
83119;SDS011;73001;51.784;4.660;2023-12-20T08:58:16;8.64;;;6.00;;
83119;SDS011;73001;51.784;4.660;2023-12-20T09:00:42;8.99;;;6.11;;
83119;SDS011;73001;51.784;4.660;2023-12-20T09:03:10;8.39;;;5.85;;
83119;SDS011;73001;51.784;4.660;2023-12-20T09:05:39;9.98;;;6.88;;
83119;SDS011;73001;51.784;4.660;2023-12-20T09:08:07;11.47;;;8.01;;
83119;SDS011;73001;51.784;4.660;2023-12-20T09:10:41;10.88;;;8.74;;
83119;SDS011;73001;51.784;4.660;2023-12-20T09:13:07;7.36;;;5.96;;
83119;SDS011;73001;51.784;4.660;2023-12-20T09:15:36;8.86;;;6.79;;
83119;SDS011;73001;51.784;4.660;2023-12-20T09:18:02;8.39;;;6.13;;
83119;SDS011;73001;51.784;4.660;2023-12-20T09:20:30;9.32;;;6.43;;
83119;SDS011;73001;51.784;4.660;2023-12-20T09:22:56;9.71;;;6.52;;
83119;SDS011;73001;51.784;4.660;2023-12-20T09:25:31;9.04;;;6.08;;
83119;SDS011;73001;51.784;4.660;2023-12-20T09:27:57;9.63;;;6.37;;
83119;SDS011;73001;51.784;4.660;2023-12-20T09:30:24;10.17;;;6.55;;
83119;SDS011;73001;51.784;4.660;2023-12-20T09:32:51;10.50;;;6.70;;
83119;SDS011;73001;51.784;4.660;2023-12-20T09:35:16;10.39;;;6.68;;
83119;SDS011;73001;51.784;4.660;2023-12-20T09:37:42;11.23;;;7.31;;
83119;SDS011;73001;51.784;4.660;2023-12-20T09:40:13;9.78;;;6.46;;
83119;SDS011;73001;51.784;4.660;2023-12-20T09:45:15;9.36;;;6.11;;
83119;SDS011;73001;51.784;4.660;2023-12-20T09:47:43;9.90;;;6.38;;
83119;SDS011;73001;51.784;4.660;2023-12-20T09:50:09;9.24;;;5.99;;
83119;SDS011;73001;51.784;4.660;2023-12-20T09:52:36;8.82;;;5.75;;
83119;SDS011;73001;51.784;4.660;2023-12-20T09:55:06;9.23;;;5.98;;
83119;SDS011;73001;51.784;4.660;2023-12-20T09:57:33;9.85;;;6.36;;
83119;SDS011;73001;51.784;4.660;2023-12-20T09:59:59;10.09;;;6.49;;
83119;SDS011;73001;51.784;4.660;2023-12-20T10:02:25;10.79;;;6.86;;
83119;SDS011;73001;51.784;4.660;2023-12-20T10:04:52;10.84;;;6.89;;
83119;SDS011;73001;51.784;4.660;2023-12-20T10:07:19;11.00;;;7.08;;
83119;SDS011;73001;51.784;4.660;2023-12-20T10:09:50;9.77;;;6.32;;
83119;SDS011;73001;51.784;4.660;2023-12-20T10:12:19;11.47;;;7.52;;
83119;SDS011;73001;51.784;4.660;2023-12-20T10:14:44;10.94;;;7.16;;
83119;SDS011;73001;51.784;4.660;2023-12-20T10:17:10;11.17;;;7.32;;
83119;SDS011;73001;51.784;4.660;2023-12-20T10:19:36;10.77;;;6.95;;
83119;SDS011;73001;51.784;4.660;2023-12-20T10:22:03;9.84;;;6.34;;
83119;SDS011;73001;51.784;4.660;2023-12-20T10:24:31;9.34;;;6.00;;
83119;SDS011;73001;51.784;4.660;2023-12-20T10:27:01;9.90;;;6.34;;
83119;SDS011;73001;51.784;4.660;2023-12-20T10:29:35;9.00;;;5.85;;
83119;SDS011;73001;51.784;4.660;2023-12-20T10:34:53;10.22;;;6.55;;
83119;SDS011;73001;51.784;4.660;2023-12-20T10:37:20;10.51;;;6.83;;
83119;SDS011;73001;51.784;4.660;2023-12-20T10:39:50;10.09;;;6.64;;
83119;SDS011;73001;51.784;4.660;2023-12-20T10:42:26;9.68;;;6.43;;
83119;SDS011;73001;51.784;4.660;2023-12-20T10:44:54;12.69;;;8.66;;
83119;SDS011;73001;51.784;4.660;2023-12-20T10:47:20;14.14;;;11.16;;
83119;SDS011;73001;51.784;4.660;2023-12-20T10:49:47;11.32;;;9.31;;
83119;SDS011;73001;51.784;4.660;2023-12-20T10:52:14;9.31;;;7.55;;
83119;SDS011;73001;51.784;4.660;2023-12-20T10:54:42;12.85;;;10.08;;
83119;SDS011;73001;51.784;4.660;2023-12-20T10:57:07;17.92;;;14.50;;
83119;SDS011;73001;51.784;4.660;2023-12-20T10:59:35;14.79;;;11.46;;
83119;SDS011;73001;51.784;4.660;2023-12-20T11:02:02;12.82;;;10.07;;
83119;SDS011;73001;51.784;4.660;2023-12-20T11:04:36;9.02;;;7.45;;
83119;SDS011;73001;51.784;4.660;2023-12-20T11:10:17;14.38;;;11.28;;
83119;SDS011;73001;51.784;4.660;2023-12-20T11:12:55;9.30;;;7.32;;
83119;SDS011;73001;51.784;4.660;2023-12-20T11:15:27;8.63;;;6.59;;
83119;SDS011;73001;51.784;4.660;2023-12-20T11:17:57;7.94;;;5.69;;
83119;SDS011;73001;51.784;4.660;2023-12-20T11:20:36;10.04;;;6.88;;
83119;SDS011;73001;51.784;4.660;2023-12-20T11:23:03;9.81;;;6.66;;
83119;SDS011;73001;51.784;4.660;2023-12-20T11:25:29;10.23;;;7.04;;
83119;SDS011;73001;51.784;4.660;2023-12-20T11:28:08;9.47;;;6.45;;
83119;SDS011;73001;51.784;4.660;2023-12-20T11:30:49;9.79;;;6.71;;
83119;SDS011;73001;51.784;4.660;2023-12-20T11:33:16;8.65;;;6.17;;
83119;SDS011;73001;51.784;4.660;2023-12-20T11:35:42;8.62;;;5.93;;
83119;SDS011;73001;51.784;4.660;2023-12-20T11:38:10;9.47;;;6.24;;
83119;SDS011;73001;51.784;4.660;2023-12-20T11:40:55;9.79;;;6.43;;
83119;SDS011;73001;51.784;4.660;2023-12-20T11:43:37;9.11;;;5.98;;
83119;SDS011;73001;51.784;4.660;2023-12-20T11:46:04;9.21;;;5.90;;
83119;SDS011;73001;51.784;4.660;2023-12-20T11:48:34;9.82;;;6.22;;
83119;SDS011;73001;51.784;4.660;2023-12-20T11:51:09;9.13;;;5.80;;
83119;SDS011;73001;51.784;4.660;2023-12-20T11:53:39;10.99;;;7.08;;
83119;SDS011;73001;51.784;4.660;2023-12-20T11:56:05;11.24;;;7.63;;
83119;SDS011;73001;51.784;4.660;2023-12-20T11:58:32;7.90;;;5.67;;
83119;SDS011;73001;51.784;4.660;2023-12-20T12:01:01;8.06;;;5.65;;
83119;SDS011;73001;51.784;4.660;2023-12-20T12:03:32;7.87;;;5.51;;
83119;SDS011;73001;51.784;4.660;2023-12-20T12:05:57;7.80;;;5.32;;
83119;SDS011;73001;51.784;4.660;2023-12-20T12:08:23;9.33;;;6.10;;
83119;SDS011;73001;51.784;4.660;2023-12-20T12:10:48;10.57;;;6.86;;
83119;SDS011;73001;51.784;4.660;2023-12-20T12:13:15;10.40;;;6.66;;
83119;SDS011;73001;51.784;4.660;2023-12-20T12:15:44;9.58;;;6.10;;
83119;SDS011;73001;51.784;4.660;2023-12-20T12:18:15;10.09;;;6.42;;
83119;SDS011;73001;51.784;4.660;2023-12-20T12:20:44;9.72;;;6.29;;
83119;SDS011;73001;51.784;4.660;2023-12-20T12:23:11;9.87;;;6.41;;
83119;SDS011;73001;51.784;4.660;2023-12-20T12:25:37;9.95;;;6.40;;
83119;SDS011;73001;51.784;4.660;2023-12-20T12:28:02;9.99;;;6.41;;
83119;SDS011;73001;51.784;4.660;2023-12-20T12:30:29;10.23;;;6.43;;
83119;SDS011;73001;51.784;4.660;2023-12-20T12:32:57;10.50;;;6.57;;
83119;SDS011;73001;51.784;4.660;2023-12-20T12:35:23;10.24;;;6.50;;
83119;SDS011;73001;51.784;4.660;2023-12-20T12:37:49;9.40;;;6.11;;
83119;SDS011;73001;51.784;4.660;2023-12-20T12:40:16;10.09;;;6.56;;
83119;SDS011;73001;51.784;4.660;2023-12-20T12:42:47;9.64;;;6.11;;
83119;SDS011;73001;51.784;4.660;2023-12-20T12:45:15;10.13;;;6.39;;
83119;SDS011;73001;51.784;4.660;2023-12-20T12:47:41;9.53;;;6.04;;
83119;SDS011;73001;51.784;4.660;2023-12-20T12:50:07;9.66;;;6.14;;
83119;SDS011;73001;51.784;4.660;2023-12-20T12:52:34;8.63;;;5.52;;
83119;SDS011;73001;51.784;4.660;2023-12-20T12:55:00;9.05;;;5.80;;
83119;SDS011;73001;51.784;4.660;2023-12-20T12:57:26;8.85;;;5.72;;
83119;SDS011;73001;51.784;4.660;2023-12-20T12:59:52;8.82;;;5.83;;
83119;SDS011;73001;51.784;4.660;2023-12-20T13:02:37;9.12;;;5.93;;
83119;SDS011;73001;51.784;4.660;2023-12-20T13:05:07;9.17;;;5.96;;
83119;SDS011;73001;51.784;4.660;2023-12-20T13:07:35;10.33;;;6.61;;
83119;SDS011;73001;51.784;4.660;2023-12-20T13:10:03;10.22;;;6.56;;
83119;SDS011;73001;51.784;4.660;2023-12-20T13:12:29;9.71;;;6.27;;
83119;SDS011;73001;51.784;4.660;2023-12-20T13:14:55;9.85;;;6.36;;
83119;SDS011;73001;51.784;4.660;2023-12-20T13:17:21;10.04;;;6.33;;
83119;SDS011;73001;51.784;4.660;2023-12-20T13:19:47;10.29;;;6.42;;
83119;SDS011;73001;51.784;4.660;2023-12-20T13:22:13;10.00;;;6.33;;
83119;SDS011;73001;51.784;4.660;2023-12-20T13:24:38;9.16;;;5.78;;
83119;SDS011;73001;51.784;4.660;2023-12-20T13:27:05;10.82;;;6.83;;
83119;SDS011;73001;51.784;4.660;2023-12-20T13:29:33;10.27;;;6.84;;
83119;SDS011;73001;51.784;4.660;2023-12-20T13:32:02;8.59;;;5.95;;
83119;SDS011;73001;51.784;4.660;2023-12-20T13:34:29;8.87;;;6.14;;
83119;SDS011;73001;51.784;4.660;2023-12-20T13:36:56;9.03;;;6.18;;
83119;SDS011;73001;51.784;4.660;2023-12-20T13:39:22;8.47;;;6.12;;
83119;SDS011;73001;51.784;4.660;2023-12-20T13:41:48;10.22;;;7.39;;
83119;SDS011;73001;51.784;4.660;2023-12-20T13:44:14;8.26;;;6.09;;
83119;SDS011;73001;51.784;4.660;2023-12-20T13:46:41;7.24;;;5.23;;
83119;SDS011;73001;51.784;4.660;2023-12-20T13:49:07;9.34;;;6.55;;
83119;SDS011;73001;51.784;4.660;2023-12-20T13:51:35;11.33;;;8.48;;
83119;SDS011;73001;51.784;4.660;2023-12-20T13:54:00;9.01;;;7.20;;
83119;SDS011;73001;51.784;4.660;2023-12-20T13:56:26;6.86;;;5.47;;
83119;SDS011;73001;51.784;4.660;2023-12-20T13:58:55;9.04;;;7.04;;
83119;SDS011;73001;51.784;4.660;2023-12-20T14:01:20;10.17;;;7.96;;
83119;SDS011;73001;51.784;4.660;2023-12-20T14:03:47;9.45;;;7.76;;
83119;SDS011;73001;51.784;4.660;2023-12-20T14:06:13;11.13;;;8.76;;
83119;SDS011;73001;51.784;4.660;2023-12-20T14:08:43;13.23;;;10.00;;
83119;SDS011;73001;51.784;4.660;2023-12-20T14:11:09;8.83;;;6.60;;
83119;SDS011;73001;51.784;4.660;2023-12-20T14:13:35;7.84;;;5.72;;
83119;SDS011;73001;51.784;4.660;2023-12-20T14:16:01;7.42;;;5.33;;
83119;SDS011;73001;51.784;4.660;2023-12-20T14:18:28;7.88;;;5.52;;
83119;SDS011;73001;51.784;4.660;2023-12-20T14:20:55;9.95;;;6.81;;
83119;SDS011;73001;51.784;4.660;2023-12-20T14:23:26;9.39;;;6.77;;
83119;SDS011;73001;51.784;4.660;2023-12-20T14:25:52;8.46;;;5.91;;
83119;SDS011;73001;51.784;4.660;2023-12-20T14:28:17;8.21;;;5.50;;
83119;SDS011;73001;51.784;4.660;2023-12-20T14:30:43;9.25;;;6.14;;
83119;SDS011;73001;51.784;4.660;2023-12-20T14:33:11;9.16;;;6.12;;
83119;SDS011;73001;51.784;4.660;2023-12-20T14:35:37;8.58;;;5.72;;
83119;SDS011;73001;51.784;4.660;2023-12-20T14:38:02;9.00;;;6.05;;
83119;SDS011;73001;51.784;4.660;2023-12-20T14:40:28;8.03;;;5.45;;
83119;SDS011;73001;51.784;4.660;2023-12-20T14:42:53;7.78;;;5.24;;
83119;SDS011;73001;51.784;4.660;2023-12-20T14:45:19;8.82;;;5.93;;
83119;SDS011;73001;51.784;4.660;2023-12-20T14:47:45;8.61;;;5.76;;
83119;SDS011;73001;51.784;4.660;2023-12-20T14:50:12;8.60;;;5.73;;
83119;SDS011;73001;51.784;4.660;2023-12-20T14:52:43;7.67;;;5.20;;